createdAt,value
2023-03-22T00:00:54.495Z,5.95
2023-03-22T00:05:59.179Z,6.68
2023-03-22T00:11:01.246Z,5.82
2023-03-22T00:16:04.232Z,5.82
2023-03-22T00:21:06.360Z,5.22
2023-03-22T00:26:09.725Z,5.80
2023-03-22T00:31:12.309Z,5.05
2023-03-22T00:36:13.808Z,5.20
2023-03-22T00:41:18.778Z,5.60
2023-03-22T00:46:21.556Z,5.75
2023-03-22T00:51:23.075Z,6.70
2023-03-22T00:56:28.655Z,5.60
2023-03-22T01:01:35.734Z,5.57
2023-03-22T01:06:37.346Z,4.80
2023-03-22T01:11:39.180Z,4.97
2023-03-22T01:16:40.852Z,5.82
2023-03-22T01:21:42.585Z,5.43
2023-03-22T01:26:44.289Z,4.53
2023-03-22T01:31:45.943Z,4.93
2023-03-22T01:36:48.129Z,4.97
2023-03-22T01:41:49.807Z,4.47
2023-03-22T01:46:52.990Z,4.50
2023-03-22T01:52:00.576Z,4.80
2023-03-22T01:57:11.732Z,4.78
2023-03-22T02:02:19.124Z,4.10
2023-03-22T02:07:27.820Z,4.38
2023-03-22T02:12:37.167Z,4.20
2023-03-22T02:18:01.533Z,3.80
2023-03-22T02:23:03.022Z,3.80
2023-03-22T02:28:42.216Z,4.10
2023-03-22T02:33:52.483Z,3.53
2023-03-22T02:39:12.517Z,3.97
2023-03-22T02:44:23.363Z,3.92
2023-03-22T02:49:49.319Z,4.05
2023-03-22T02:55:04.199Z,3.67
2023-03-22T03:00:11.438Z,3.55
2023-03-22T03:05:14.884Z,3.50
2023-03-22T03:10:19.042Z,3.75
2023-03-22T03:15:23.479Z,3.88
2023-03-22T03:20:57.322Z,3.80
2023-03-22T03:26:02.305Z,3.30
2023-03-22T03:31:09.660Z,3.85
2023-03-22T03:36:18.103Z,3.50
2023-03-22T03:41:27.116Z,3.65
2023-03-22T03:46:29.559Z,3.38
2023-03-22T03:51:33.811Z,3.50
2023-03-22T03:56:35.398Z,3.30
2023-03-22T04:01:37.284Z,4.13
2023-03-22T04:06:46.034Z,3.95
2023-03-22T04:11:56.249Z,4.85
2023-03-22T04:16:57.930Z,4.45
2023-03-22T04:22:01.397Z,4.53
2023-03-22T04:27:05.471Z,4.78
2023-03-22T04:32:27.184Z,5.50
2023-03-22T04:37:33.653Z,5.03
2023-03-22T04:42:57.369Z,5.22
2023-03-22T04:48:10.614Z,5.40
2023-03-22T04:53:12.653Z,4.93
2023-03-22T04:58:16.145Z,5.40
2023-03-22T05:03:19.138Z,5.57
2023-03-22T05:08:22.535Z,5.22
2023-03-22T05:13:26.972Z,5.75
2023-03-22T05:18:29.286Z,5.53
2023-03-22T05:23:32.932Z,5.20
2023-03-22T05:28:35.731Z,5.53
2023-03-22T05:33:44.341Z,5.10
2023-03-22T05:38:48.846Z,4.55
2023-03-22T05:43:52.429Z,4.80
2023-03-22T05:48:56.098Z,5.22
2023-03-22T05:53:57.817Z,5.13
2023-03-22T05:59:06.944Z,5.18
2023-03-22T06:09:40.200Z,5.07
2023-03-22T06:14:45.366Z,5.70
2023-03-22T06:19:56.047Z,5.38
2023-03-22T06:24:58.976Z,5.00
2023-03-22T06:30:10.293Z,4.80
2023-03-22T06:35:29.350Z,5.30
2023-03-22T06:40:31.016Z,4.93
2023-03-22T06:45:33.436Z,5.57
2023-03-22T06:50:39.155Z,5.05
2023-03-22T06:55:46.189Z,5.22
2023-03-22T07:00:57.509Z,5.40
2023-03-22T07:06:05.845Z,5.25
2023-03-22T07:11:09.253Z,5.60
2023-03-22T07:16:11.977Z,5.75
2023-03-22T07:21:17.541Z,5.10
2023-03-22T07:26:25.953Z,6.00
2023-03-22T07:31:31.415Z,6.03
2023-03-22T07:36:38.276Z,5.88
2023-03-22T07:41:43.256Z,5.65
2023-03-22T07:46:59.970Z,5.45
2023-03-22T07:52:11.325Z,4.97
2023-03-22T07:57:12.904Z,4.30
2023-03-22T08:02:20.574Z,4.00
2023-03-22T08:07:26.202Z,4.30
2023-03-22T08:12:28.684Z,3.83
2023-03-22T08:17:39.744Z,3.95
2023-03-22T08:22:46.733Z,3.60
2023-03-22T08:28:06.824Z,3.25
2023-03-22T08:33:08.888Z,3.30
2023-03-22T08:38:11.058Z,3.27
2023-03-22T08:43:20.244Z,3.55
2023-03-22T08:48:22.049Z,2.70
2023-03-22T08:53:58.811Z,3.00
2023-03-22T08:59:26.542Z,2.83
2023-03-22T09:04:45.515Z,2.58
2023-03-22T09:09:47.196Z,2.20
2023-03-22T09:14:49.921Z,2.30
2023-03-22T09:20:02.684Z,2.17
2023-03-22T09:25:12.999Z,2.17
2023-03-22T09:30:17.382Z,1.90
2023-03-22T09:35:19.379Z,2.20
2023-03-22T09:40:49.930Z,1.77
2023-03-22T09:45:52.375Z,1.80
2023-03-22T09:50:55.287Z,1.90
2023-03-22T09:56:14.247Z,1.80
2023-03-22T10:01:29.092Z,1.30
2023-03-22T10:06:31.655Z,1.40
2023-03-22T10:11:39.009Z,1.60
2023-03-22T10:16:41.063Z,1.90
2023-03-22T10:21:43.616Z,1.50
2023-03-22T10:26:47.469Z,1.80
2023-03-22T10:31:49.029Z,1.83
2023-03-22T10:36:52.668Z,1.67
2023-03-22T10:41:58.091Z,1.80
2023-03-22T10:47:07.707Z,1.83
2023-03-22T10:52:23.972Z,1.92
2023-03-22T10:57:28.354Z,1.60
2023-03-22T11:02:32.689Z,1.60
2023-03-22T11:07:37.437Z,1.70
2023-03-22T11:12:47.095Z,1.60
2023-03-22T11:17:49.221Z,1.48
2023-03-22T11:22:51.250Z,1.50
2023-03-22T11:27:58.796Z,1.30
2023-03-22T11:33:21.135Z,1.33
2023-03-22T11:38:47.372Z,1.13
2023-03-22T11:43:56.769Z,1.30
2023-03-22T11:49:04.276Z,1.63
2023-03-22T11:54:16.597Z,1.60
2023-03-22T11:59:37.280Z,1.40
2023-03-22T12:04:41.714Z,1.40
2023-03-22T12:10:00.073Z,1.40
2023-03-22T12:15:11.119Z,1.50
2023-03-22T12:20:32.141Z,1.27
2023-03-22T12:25:36.090Z,1.80
2023-03-22T12:30:43.251Z,1.55
2023-03-22T12:35:46.791Z,1.30
2023-03-22T12:40:49.600Z,1.67
2023-03-22T12:45:58.375Z,1.73
2023-03-22T12:51:04.560Z,1.35
2023-03-22T12:56:06.627Z,1.50
2023-03-22T13:01:19.724Z,1.30
2023-03-22T13:06:46.298Z,1.40
2023-03-22T13:12:26.931Z,1.30
2023-03-22T13:17:28.774Z,1.40
2023-03-22T13:22:36.434Z,1.60
2023-03-22T13:27:57.171Z,1.90
2023-03-22T13:33:14.751Z,1.52
2023-03-22T13:38:22.257Z,1.80
2023-03-22T13:43:29.050Z,1.50
2023-03-22T13:48:39.606Z,1.92
2023-03-22T13:53:47.006Z,1.60
2023-03-22T13:58:52.824Z,2.38
2023-03-22T14:03:59.862Z,1.70
2023-03-22T14:09:13.342Z,1.40
2023-03-22T14:14:29.872Z,1.50
2023-03-22T14:19:33.377Z,1.40
